Time;durP1;ratioP1;P1;durP2;ratioP2;P2;SDS_P1;SDS_P2;PMS_P1;PMS_P2;Temp;Humidity;BMP_temperature;BMP_pressure;BME280_temperature;BME280_humidity;BME280_pressure;Samples;Min_cycle;Max_cycle;Signal;HPM_P1;HPM_P2
2024/01/02 00:00:43;;;;;;;2.73;1.40;;;;;;;;;;5025161;28;20212;-62
2024/01/02 00:03:12;;;;;;;5.37;1.47;;;;;;;;;;5026868;28;20204;-61
2024/01/02 00:05:39;;;;;;;3.97;1.30;;;;;;;;;;5022185;28;20205;-61
2024/01/02 00:08:06;;;;;;;3.90;1.47;;;;;;;;;;5022549;28;20212;-61
2024/01/02 00:10:33;;;;;;;3.67;1.20;;;;;;;;;;5024171;28;20201;-62
2024/01/02 00:13:01;;;;;;;3.33;1.00;;;;;;;;;;5025142;28;20224;-62
2024/01/02 00:15:28;;;;;;;4.47;1.37;;;;;;;;;;5026080;28;20208;-62
2024/01/02 00:17:55;;;;;;;3.60;1.30;;;;;;;;;;5023997;28;20211;-61
2024/01/02 00:20:23;;;;;;;5.87;1.47;;;;;;;;;;5025367;28;20283;-61
2024/01/02 00:22:50;;;;;;;4.00;1.20;;;;;;;;;;5021951;28;20209;-61
2024/01/02 00:25:18;;;;;;;4.80;1.70;;;;;;;;;;5026128;28;20212;-61
2024/01/02 00:27:45;;;;;;;4.50;1.20;;;;;;;;;;5024444;28;20204;-63
2024/01/02 00:30:12;;;;;;;3.40;1.10;;;;;;;;;;5022993;28;20200;-61
2024/01/02 00:32:39;;;;;;;2.83;1.20;;;;;;;;;;5024377;28;20308;-61
2024/01/02 00:35:07;;;;;;;2.83;1.23;;;;;;;;;;5024628;28;20211;-61
2024/01/02 00:37:36;;;;;;;2.30;1.00;;;;;;;;;;5024586;28;20246;-61
2024/01/02 00:40:03;;;;;;;3.47;1.30;;;;;;;;;;5024246;28;20200;-60
2024/01/02 00:42:30;;;;;;;2.10;0.80;;;;;;;;;;5023228;28;20422;-61
2024/01/02 00:44:59;;;;;;;2.50;1.17;;;;;;;;;;5025620;28;20206;-60
2024/01/02 00:47:26;;;;;;;2.50;1.10;;;;;;;;;;5019163;28;20208;-62
2024/01/02 00:49:53;;;;;;;2.50;0.90;;;;;;;;;;5021583;28;20200;-62
2024/01/02 00:52:20;;;;;;;3.87;1.23;;;;;;;;;;5025014;28;20223;-61
2024/01/02 00:54:51;;;;;;;3.33;1.10;;;;;;;;;;5020914;28;20211;-61
2024/01/02 00:57:18;;;;;;;1.63;0.80;;;;;;;;;;5014757;28;20209;-62
2024/01/02 00:59:45;;;;;;;1.77;0.97;;;;;;;;;;5033105;28;20204;-61
2024/01/02 01:02:12;;;;;;;2.30;0.90;;;;;;;;;;5025564;28;20214;-62
2024/01/02 01:04:42;;;;;;;1.53;0.80;;;;;;;;;;5027017;28;20230;-61
2024/01/02 01:07:09;;;;;;;3.03;1.10;;;;;;;;;;5019067;28;20228;-61
2024/01/02 01:09:36;;;;;;;2.30;0.90;;;;;;;;;;5023330;28;20207;-61
2024/01/02 01:12:05;;;;;;;1.20;0.87;;;;;;;;;;5025188;28;20214;-63
2024/01/02 01:14:32;;;;;;;1.27;1.03;;;;;;;;;;5023776;28;20224;-61
2024/01/02 01:17:00;;;;;;;2.87;0.83;;;;;;;;;;5023286;28;20208;-61
2024/01/02 01:19:27;;;;;;;1.40;0.70;;;;;;;;;;5024248;28;20283;-60
2024/01/02 01:21:54;;;;;;;1.77;0.73;;;;;;;;;;5025934;28;20218;-61
2024/01/02 01:24:21;;;;;;;1.47;0.87;;;;;;;;;;5023305;28;20207;-61
2024/01/02 01:26:52;;;;;;;1.83;0.60;;;;;;;;;;5023307;28;20205;-60
2024/01/02 01:29:21;;;;;;;1.83;0.87;;;;;;;;;;5021951;28;20208;-61
2024/01/02 01:31:48;;;;;;;1.70;0.70;;;;;;;;;;5020856;28;20200;-61
2024/01/02 01:34:15;;;;;;;1.07;0.80;;;;;;;;;;5022147;28;20286;-61
2024/01/02 01:36:42;;;;;;;0.93;0.53;;;;;;;;;;5021964;28;20580;-61
2024/01/02 01:39:09;;;;;;;0.63;0.63;;;;;;;;;;5023130;28;20210;-62
2024/01/02 01:41:36;;;;;;;2.67;0.70;;;;;;;;;;5023616;28;20204;-66
2024/01/02 01:44:04;;;;;;;1.07;0.60;;;;;;;;;;5022564;28;20204;-66
2024/01/02 01:46:35;;;;;;;1.10;0.67;;;;;;;;;;5024660;28;20223;-67
2024/01/02 01:49:03;;;;;;;0.93;0.60;;;;;;;;;;5024933;28;20205;-66
2024/01/02 01:51:31;;;;;;;1.70;0.73;;;;;;;;;;5018085;28;20208;-66
2024/01/02 01:54:00;;;;;;;0.93;0.70;;;;;;;;;;5028678;28;20232;-66
2024/01/02 01:56:27;;;;;;;1.37;0.87;;;;;;;;;;5025935;28;20215;-65
2024/01/02 01:58:54;;;;;;;0.57;0.57;;;;;;;;;;5026867;28;20204;-67
2024/01/02 02:01:21;;;;;;;0.83;0.60;;;;;;;;;;5028070;28;20416;-66
2024/01/02 02:03:50;;;;;;;1.53;0.50;;;;;;;;;;5022720;28;20202;-66
2024/01/02 02:06:17;;;;;;;1.43;0.80;;;;;;;;;;5022314;28;20201;-66
2024/01/02 02:08:44;;;;;;;0.43;0.37;;;;;;;;;;5024887;28;20218;-65
2024/01/02 02:11:13;;;;;;;2.13;0.60;;;;;;;;;;5024283;28;20201;-67
2024/01/02 02:13:40;;;;;;;0.50;0.50;;;;;;;;;;5023060;28;20232;-67
2024/01/02 02:16:07;;;;;;;0.50;0.50;;;;;;;;;;5025149;28;20405;-65
2024/01/02 02:18:34;;;;;;;0.73;0.73;;;;;;;;;;5022119;28;20209;-66
2024/01/02 02:21:03;;;;;;;0.60;0.50;;;;;;;;;;5021866;28;20212;-65
2024/01/02 02:23:32;;;;;;;1.03;0.50;;;;;;;;;;5021147;28;20200;-67
2024/01/02 02:25:59;;;;;;;1.13;0.60;;;;;;;;;;5024432;28;20203;-66
2024/01/02 02:28:26;;;;;;;1.00;0.50;;;;;;;;;;5021107;28;20200;-67
2024/01/02 02:30:53;;;;;;;0.77;0.70;;;;;;;;;;5020231;28;20211;-66
2024/01/02 02:33:20;;;;;;;0.47;0.47;;;;;;;;;;5021794;28;20224;-65
2024/01/02 02:35:47;;;;;;;0.63;0.40;;;;;;;;;;5020214;28;20205;-66
2024/01/02 02:38:15;;;;;;;0.97;0.50;;;;;;;;;;5023425;28;20240;-66
2024/01/02 02:40:43;;;;;;;0.60;0.40;;;;;;;;;;5020332;28;20200;-66
2024/01/02 02:43:10;;;;;;;0.83;0.50;;;;;;;;;;5019354;28;20211;-66
2024/01/02 02:45:37;;;;;;;0.40;0.40;;;;;;;;;;5025343;28;20228;-66
2024/01/02 02:48:05;;;;;;;0.47;0.40;;;;;;;;;;5025053;28;20475;-66
2024/01/02 02:50:32;;;;;;;0.53;0.50;;;;;;;;;;5012005;28;20211;-60
2024/01/02 02:52:59;;;;;;;0.50;0.40;;;;;;;;;;5021299;28;20204;-61
2024/01/02 02:55:26;;;;;;;1.30;0.50;;;;;;;;;;5024286;28;20210;-62
2024/01/02 02:57:54;;;;;;;0.40;0.40;;;;;;;;;;5021784;28;20208;-60
2024/01/02 03:00:22;;;;;;;0.60;0.60;;;;;;;;;;5023673;28;20220;-60
2024/01/02 03:02:49;;;;;;;0.67;0.40;;;;;;;;;;5023368;28;20226;-61
2024/01/02 03:05:16;;;;;;;1.83;0.20;;;;;;;;;;5021802;28;20204;-61
2024/01/02 03:07:43;;;;;;;0.30;0.23;;;;;;;;;;5025642;28;20212;-61
2024/01/02 03:10:14;;;;;;;1.50;0.27;;;;;;;;;;5025170;28;20204;-61
2024/01/02 03:12:41;;;;;;;0.47;0.20;;;;;;;;;;5026022;28;20226;-62
2024/01/02 03:15:10;;;;;;;0.30;0.20;;;;;;;;;;5025206;28;20232;-61
2024/01/02 03:17:37;;;;;;;0.43;0.37;;;;;;;;;;5028364;28;20211;-62
2024/01/02 03:20:05;;;;;;;0.70;0.30;;;;;;;;;;5032244;28;20206;-61
2024/01/02 03:22:32;;;;;;;0.50;0.30;;;;;;;;;;5028573;28;20208;-61
2024/01/02 03:24:59;;;;;;;0.63;0.30;;;;;;;;;;5029068;28;20204;-61
2024/01/02 03:27:26;;;;;;;0.83;0.30;;;;;;;;;;5025545;28;20207;-62
2024/01/02 03:29:54;;;;;;;0.40;0.40;;;;;;;;;;5024716;28;20287;-61
2024/01/02 03:32:22;;;;;;;0.20;0.20;;;;;;;;;;5027125;28;20204;-60
2024/01/02 03:34:50;;;;;;;0.37;0.20;;;;;;;;;;5024944;28;20227;-63
2024/01/02 03:37:18;;;;;;;0.43;0.43;;;;;;;;;;5027147;28;20529;-61
2024/01/02 03:39:45;;;;;;;0.30;0.30;;;;;;;;;;5024319;28;20214;-62
2024/01/02 03:42:12;;;;;;;2.77;0.30;;;;;;;;;;5030912;28;20215;-60
2024/01/02 03:44:39;;;;;;;0.20;0.20;;;;;;;;;;5024558;28;20200;-61
2024/01/02 03:47:06;;;;;;;0.40;0.30;;;;;;;;;;5026215;28;20241;-61
2024/01/02 03:49:35;;;;;;;0.83;0.60;;;;;;;;;;5025709;28;20259;-62
2024/01/02 03:52:02;;;;;;;0.10;0.10;;;;;;;;;;5023120;28;20330;-60
2024/01/02 03:54:30;;;;;;;0.10;0.10;;;;;;;;;;5024537;28;20236;-61
2024/01/02 03:56:57;;;;;;;0.20;0.20;;;;;;;;;;5025852;28;20239;-62
2024/01/02 03:59:24;;;;;;;0.33;0.20;;;;;;;;;;5023825;28;20205;-62
2024/01/02 04:01:51;;;;;;;0.10;0.10;;;;;;;;;;5025514;28;20219;-66
2024/01/02 04:04:18;;;;;;;0.37;0.37;;;;;;;;;;5025725;28;20204;-66
2024/01/02 04:06:46;;;;;;;0.20;0.20;;;;;;;;;;5027075;28;20222;-66
2024/01/02 04:09:13;;;;;;;0.20;0.20;;;;;;;;;;5026457;28;20214;-66
2024/01/02 04:11:41;;;;;;;0.37;0.20;;;;;;;;;;5028675;28;20206;-66
2024/01/02 04:14:08;;;;;;;0.10;0.07;;;;;;;;;;5025315;28;20329;-67
2024/01/02 04:16:35;;;;;;;0.67;0.23;;;;;;;;;;5024331;28;20212;-65
2024/01/02 04:19:02;;;;;;;0.30;0.30;;;;;;;;;;5023632;28;20200;-66
2024/01/02 04:21:29;;;;;;;0.20;0.20;;;;;;;;;;5024418;28;20213;-66
2024/01/02 04:23:57;;;;;;;0.40;0.40;;;;;;;;;;5025025;28;20200;-65
2024/01/02 04:26:25;;;;;;;0.30;0.20;;;;;;;;;;5022909;28;20215;-66
2024/01/02 04:28:52;;;;;;;0.50;0.47;;;;;;;;;;5025091;28;20207;-67
2024/01/02 04:31:19;;;;;;;0.30;0.30;;;;;;;;;;5022870;28;20207;-65
2024/01/02 04:33:46;;;;;;;0.20;0.20;;;;;;;;;;5022958;28;20228;-65
2024/01/02 04:36:13;;;;;;;0.77;0.40;;;;;;;;;;5021380;28;20208;-65
2024/01/02 04:38:40;;;;;;;0.60;0.20;;;;;;;;;;5021471;28;20208;-66
2024/01/02 04:41:09;;;;;;;0.30;0.20;;;;;;;;;;5026516;28;20216;-66
2024/01/02 04:43:36;;;;;;;0.47;0.17;;;;;;;;;;5025410;28;20208;-66
2024/01/02 04:46:03;;;;;;;0.83;0.30;;;;;;;;;;5025349;28;20200;-66
2024/01/02 04:48:30;;;;;;;0.10;0.10;;;;;;;;;;5026505;28;20208;-66
2024/01/02 04:50:58;;;;;;;0.40;0.30;;;;;;;;;;5028057;28;20200;-66
2024/01/02 04:53:25;;;;;;;0.23;0.23;;;;;;;;;;5023011;28;20535;-66
2024/01/02 04:55:52;;;;;;;0.27;0.27;;;;;;;;;;5024453;28;20224;-67
2024/01/02 04:58:21;;;;;;;0.20;0.20;;;;;;;;;;5023562;28;20208;-66
2024/01/02 05:00:48;;;;;;;0.10;0.10;;;;;;;;;;5024277;28;20222;-65
2024/01/02 05:03:15;;;;;;;0.17;0.17;;;;;;;;;;5026929;28;20212;-65
2024/01/02 05:05:42;;;;;;;0.27;0.27;;;;;;;;;;5022691;28;20220;-66
2024/01/02 05:08:09;;;;;;;1.33;0.23;;;;;;;;;;5023035;28;20213;-66
2024/01/02 05:10:36;;;;;;;0.33;0.17;;;;;;;;;;5024991;28;20208;-62
2024/01/02 05:13:04;;;;;;;0.27;0.27;;;;;;;;;;5025388;28;20489;-61
2024/01/02 05:15:32;;;;;;;0.43;0.10;;;;;;;;;;5020917;28;20229;-62
2024/01/02 05:17:59;;;;;;;0.20;0.20;;;;;;;;;;5027180;28;20204;-60
2024/01/02 05:20:27;;;;;;;0.20;0.20;;;;;;;;;;5021238;28;20215;-62
2024/01/02 05:22:54;;;;;;;0.27;0.27;;;;;;;;;;5024196;28;20196;-61
2024/01/02 05:25:21;;;;;;;0.40;0.20;;;;;;;;;;5023509;28;20196;-60
2024/01/02 05:27:48;;;;;;;0.20;0.20;;;;;;;;;;5023274;28;20213;-61
2024/01/02 05:30:15;;;;;;;0.40;0.30;;;;;;;;;;5023078;28;20200;-61
2024/01/02 05:32:44;;;;;;;0.10;0.10;;;;;;;;;;5023092;28;20201;-61
2024/01/02 05:35:11;;;;;;;0.30;0.23;;;;;;;;;;5021027;28;20234;-61
2024/01/02 05:37:38;;;;;;;0.30;0.30;;;;;;;;;;5024824;28;20238;-61
2024/01/02 05:40:05;;;;;;;0.13;0.13;;;;;;;;;;5023227;28;20196;-61
2024/01/02 05:42:33;;;;;;;0.10;0.10;;;;;;;;;;5022745;28;20236;-61
2024/01/02 05:45:00;;;;;;;0.30;0.30;;;;;;;;;;5028457;28;20200;-60
2024/01/02 05:47:27;;;;;;;0.27;0.27;;;;;;;;;;5026596;28;20212;-61
2024/01/02 05:49:55;;;;;;;0.33;0.30;;;;;;;;;;5023378;28;20208;-60
2024/01/02 05:52:22;;;;;;;0.43;0.43;;;;;;;;;;5023145;28;20204;-61
2024/01/02 05:54:49;;;;;;;0.20;0.20;;;;;;;;;;5021614;28;20220;-60
2024/01/02 05:57:17;;;;;;;0.50;0.17;;;;;;;;;;5027163;28;20303;-61
2024/01/02 05:59:44;;;;;;;0.50;0.47;;;;;;;;;;5026115;28;20215;-61
2024/01/02 06:02:11;;;;;;;0.23;0.23;;;;;;;;;;5022152;28;20200;-61
2024/01/02 06:04:38;;;;;;;0.47;0.30;;;;;;;;;;5029382;28;20201;-61
2024/01/02 06:07:06;;;;;;;0.30;0.20;;;;;;;;;;5017113;28;20211;-61
2024/01/02 06:09:34;;;;;;;0.97;0.30;;;;;;;;;;5024050;28;20219;-61
2024/01/02 06:12:01;;;;;;;0.30;0.13;;;;;;;;;;5021724;28;20273;-61
2024/01/02 06:14:28;;;;;;;0.97;0.40;;;;;;;;;;5021466;28;20224;-61
2024/01/02 06:16:55;;;;;;;0.30;0.27;;;;;;;;;;5021666;28;20211;-60
2024/01/02 06:19:22;;;;;;;0.20;0.20;;;;;;;;;;5022158;28;20204;-62
2024/01/02 06:21:49;;;;;;;0.83;0.30;;;;;;;;;;5023830;28;20200;-61
2024/01/02 06:24:18;;;;;;;0.10;0.10;;;;;;;;;;5025777;28;20196;-62
2024/01/02 06:26:45;;;;;;;0.20;0.10;;;;;;;;;;5025170;28;20215;-61
2024/01/02 06:29:12;;;;;;;1.07;0.30;;;;;;;;;;5022476;28;20211;-61
2024/01/02 06:31:39;;;;;;;0.60;0.30;;;;;;;;;;5023436;28;20211;-61
2024/01/02 06:34:06;;;;;;;0.10;0.10;;;;;;;;;;5019373;28;20205;-61
2024/01/02 06:36:33;;;;;;;0.20;0.20;;;;;;;;;;5024397;28;20244;-62
2024/01/02 06:39:00;;;;;;;0.30;0.20;;;;;;;;;;5029134;28;20215;-61
2024/01/02 06:41:29;;;;;;;0.10;0.10;;;;;;;;;;5022162;28;20205;-61
2024/01/02 06:43:56;;;;;;;0.50;0.20;;;;;;;;;;5021752;28;20270;-62
2024/01/02 06:46:23;;;;;;;0.20;0.17;;;;;;;;;;5026342;28;20211;-61
2024/01/02 06:48:50;;;;;;;0.50;0.30;;;;;;;;;;5019629;28;20223;-62
2024/01/02 06:51:17;;;;;;;0.20;0.20;;;;;;;;;;5012150;28;20205;-61
2024/01/02 06:53:44;;;;;;;0.33;0.20;;;;;;;;;;5012825;28;20234;-62
2024/01/02 06:56:12;;;;;;;0.23;0.23;;;;;;;;;;5018969;28;20248;-61
2024/01/02 06:58:44;;;;;;;0.27;0.27;;;;;;;;;;5020447;28;20215;-61
2024/01/02 07:01:14;;;;;;;0.60;0.30;;;;;;;;;;5023098;28;20212;-62
2024/01/02 07:03:41;;;;;;;0.20;0.20;;;;;;;;;;5023710;28;20223;-60
2024/01/02 07:06:08;;;;;;;0.20;0.20;;;;;;;;;;5026352;28;20208;-61
2024/01/02 07:08:35;;;;;;;0.20;0.20;;;;;;;;;;5023388;28;20212;-61
2024/01/02 07:11:02;;;;;;;0.20;0.10;;;;;;;;;;5023608;28;20202;-61
2024/01/02 07:13:29;;;;;;;0.10;0.10;;;;;;;;;;5024636;28;20493;-61
2024/01/02 07:15:58;;;;;;;0.33;0.20;;;;;;;;;;5020750;28;20219;-61
2024/01/02 07:18:25;;;;;;;0.07;0.07;;;;;;;;;;5025486;28;20206;-61
2024/01/02 07:20:52;;;;;;;0.40;0.40;;;;;;;;;;5017287;28;20193;-61
2024/01/02 07:23:19;;;;;;;0.30;0.10;;;;;;;;;;5023313;28;20303;-61
2024/01/02 07:25:46;;;;;;;0.23;0.20;;;;;;;;;;5025541;28;20215;-62
2024/01/02 07:28:13;;;;;;;0.27;0.17;;;;;;;;;;5018360;28;20200;-61
2024/01/02 07:30:41;;;;;;;0.30;0.23;;;;;;;;;;5020135;28;20204;-61
2024/01/02 07:33:09;;;;;;;0.63;0.13;;;;;;;;;;5023793;28;20197;-61
2024/01/02 07:35:36;;;;;;;0.30;0.20;;;;;;;;;;5017961;28;20247;-62
2024/01/02 07:38:03;;;;;;;0.30;0.30;;;;;;;;;;5023826;28;20236;-62
2024/01/02 07:40:30;;;;;;;0.20;0.20;;;;;;;;;;5020697;28;20208;-62
2024/01/02 07:42:57;;;;;;;0.30;0.30;;;;;;;;;;5022277;28;20212;-62
2024/01/02 07:45:24;;;;;;;0.10;0.10;;;;;;;;;;5014306;28;20200;-61
2024/01/02 07:47:52;;;;;;;0.77;0.30;;;;;;;;;;5022880;28;20207;-61
2024/01/02 07:50:20;;;;;;;0.13;0.13;;;;;;;;;;5021838;28;20208;-61
2024/01/02 07:52:48;;;;;;;0.20;0.20;;;;;;;;;;5024600;28;20204;-62
2024/01/02 07:55:15;;;;;;;0.30;0.30;;;;;;;;;;5025294;28;20219;-61
2024/01/02 07:57:42;;;;;;;0.70;0.40;;;;;;;;;;5025533;28;20207;-61
2024/01/02 08:00:10;;;;;;;0.30;0.30;;;;;;;;;;5024705;28;20196;-61
2024/01/02 08:02:37;;;;;;;0.53;0.33;;;;;;;;;;5022694;28;20204;-61
2024/01/02 08:05:04;;;;;;;0.50;0.50;;;;;;;;;;5026821;28;20204;-61
2024/01/02 08:07:33;;;;;;;0.20;0.20;;;;;;;;;;5024531;28;20212;-62
2024/01/02 08:10:00;;;;;;;1.50;0.30;;;;;;;;;;5024226;28;20205;-61
2024/01/02 08:12:27;;;;;;;0.27;0.27;;;;;;;;;;5026294;28;20299;-62
2024/01/02 08:14:54;;;;;;;0.60;0.60;;;;;;;;;;5024152;28;20236;-63
2024/01/02 08:17:23;;;;;;;0.37;0.30;;;;;;;;;;5024129;28;20205;-62
2024/01/02 08:19:51;;;;;;;0.33;0.33;;;;;;;;;;5023228;28;20234;-63
2024/01/02 08:22:18;;;;;;;0.50;0.30;;;;;;;;;;5025923;28;20215;-61
2024/01/02 08:24:46;;;;;;;0.20;0.20;;;;;;;;;;5019110;28;20205;-61
2024/01/02 08:27:14;;;;;;;0.33;0.27;;;;;;;;;;5017884;28;20204;-61
2024/01/02 08:29:41;;;;;;;0.90;0.50;;;;;;;;;;5020831;28;20209;-62
2024/01/02 08:32:08;;;;;;;0.63;0.23;;;;;;;;;;5022926;28;20204;-61
2024/01/02 08:34:35;;;;;;;0.40;0.30;;;;;;;;;;5027950;28;20208;-62
2024/01/02 08:37:03;;;;;;;0.40;0.33;;;;;;;;;;5023516;28;20240;-61
2024/01/02 08:39:30;;;;;;;0.40;0.40;;;;;;;;;;5024314;28;20212;-61
2024/01/02 08:41:59;;;;;;;0.30;0.30;;;;;;;;;;5029207;28;20204;-61
2024/01/02 08:44:26;;;;;;;0.40;0.20;;;;;;;;;;5023848;28;20584;-61
2024/01/02 08:46:53;;;;;;;0.97;0.63;;;;;;;;;;5023502;28;20206;-61
2024/01/02 08:49:20;;;;;;;0.20;0.20;;;;;;;;;;5026681;28;20222;-61
2024/01/02 08:51:47;;;;;;;0.20;0.20;;;;;;;;;;5019583;28;20204;-61
2024/01/02 08:54:14;;;;;;;0.27;0.27;;;;;;;;;;5021694;28;20220;-61
2024/01/02 08:56:41;;;;;;;0.37;0.30;;;;;;;;;;5028415;28;20220;-61
2024/01/02 08:59:10;;;;;;;1.23;0.20;;;;;;;;;;5024208;28;20212;-62
2024/01/02 09:01:37;;;;;;;0.43;0.20;;;;;;;;;;5017982;28;20220;-62
2024/01/02 09:04:04;;;;;;;0.30;0.30;;;;;;;;;;5010792;28;20243;-62
2024/01/02 09:06:31;;;;;;;0.60;0.50;;;;;;;;;;5011767;28;20215;-61
2024/01/02 09:08:58;;;;;;;1.33;0.40;;;;;;;;;;5012372;28;20303;-62
2024/01/02 09:11:25;;;;;;;0.20;0.20;;;;;;;;;;5012773;28;20209;-61
2024/01/02 09:13:52;;;;;;;0.30;0.30;;;;;;;;;;5011559;28;20200;-61
2024/01/02 09:16:21;;;;;;;0.27;0.20;;;;;;;;;;5010662;28;20220;-62
2024/01/02 09:18:48;;;;;;;0.43;0.20;;;;;;;;;;5007720;28;20204;-62
2024/01/02 09:21:15;;;;;;;0.20;0.20;;;;;;;;;;5010069;28;20212;-61
2024/01/02 09:23:42;;;;;;;0.30;0.30;;;;;;;;;;5010327;28;20208;-62
2024/01/02 09:26:11;;;;;;;0.40;0.40;;;;;;;;;;5007368;28;20235;-62
2024/01/02 09:28:39;;;;;;;0.30;0.30;;;;;;;;;;5011807;28;20204;-62
2024/01/02 09:31:06;;;;;;;0.30;0.23;;;;;;;;;;5008499;28;20193;-62
2024/01/02 09:33:35;;;;;;;0.43;0.27;;;;;;;;;;5009244;28;20208;-61
2024/01/02 09:36:02;;;;;;;0.63;0.50;;;;;;;;;;5011834;28;20235;-62
2024/01/02 09:38:29;;;;;;;0.30;0.30;;;;;;;;;;5011014;28;20236;-62
2024/01/02 09:41:06;;;;;;;0.57;0.40;;;;;;;;;;5010076;28;20547;-60
2024/01/02 09:43:37;;;;;;;1.03;0.30;;;;;;;;;;5011010;28;20204;-61
2024/01/02 09:46:08;;;;;;;0.33;0.33;;;;;;;;;;5014249;28;20196;-62
2024/01/02 09:48:52;;;;;;;0.70;0.70;;;;;;;;;;5008287;28;20207;-61
2024/01/02 09:51:24;;;;;;;0.50;0.50;;;;;;;;;;5005754;28;20250;-65
2024/01/02 09:54:11;;;;;;;1.33;0.70;;;;;;;;;;4999380;28;20209;-65
2024/01/02 09:56:43;;;;;;;0.70;0.50;;;;;;;;;;5007572;28;20236;-65
2024/01/02 09:59:18;;;;;;;0.27;0.27;;;;;;;;;;5007693;28;20259;-66
2024/01/02 10:01:51;;;;;;;0.20;0.20;;;;;;;;;;5007686;28;20207;-65
2024/01/02 10:04:30;;;;;;;1.10;0.70;;;;;;;;;;5009944;28;20204;-65
2024/01/02 10:07:07;;;;;;;0.90;0.90;;;;;;;;;;5007987;28;20200;-66
2024/01/02 10:09:41;;;;;;;0.90;0.90;;;;;;;;;;5009701;28;20206;-66
2024/01/02 10:12:12;;;;;;;0.97;0.97;;;;;;;;;;5006641;28;20220;-65
2024/01/02 10:14:46;;;;;;;1.97;1.00;;;;;;;;;;5008657;28;20211;-66
2024/01/02 10:17:18;;;;;;;0.47;0.47;;;;;;;;;;5010404;28;20231;-65
2024/01/02 10:19:51;;;;;;;0.50;0.50;;;;;;;;;;5008449;28;20266;-66
2024/01/02 10:22:27;;;;;;;0.30;0.30;;;;;;;;;;5008037;28;20204;-66
2024/01/02 10:24:58;;;;;;;0.50;0.50;;;;;;;;;;5008807;28;20204;-65
2024/01/02 10:27:31;;;;;;;0.77;0.70;;;;;;;;;;5002108;28;20200;-64
2024/01/02 10:30:02;;;;;;;0.63;0.57;;;;;;;;;;5006221;28;20220;-65
2024/01/02 10:32:45;;;;;;;0.50;0.50;;;;;;;;;;5001517;28;20215;-65
2024/01/02 10:35:16;;;;;;;0.30;0.30;;;;;;;;;;5006370;28;20220;-65
2024/01/02 10:37:49;;;;;;;0.30;0.30;;;;;;;;;;5002853;28;20818;-65
2024/01/02 10:40:23;;;;;;;0.30;0.30;;;;;;;;;;5006759;28;20208;-65
2024/01/02 10:42:56;;;;;;;0.73;0.73;;;;;;;;;;5001565;28;20208;-64
2024/01/02 10:45:27;;;;;;;0.70;0.70;;;;;;;;;;5002240;28;20208;-65
2024/01/02 10:48:06;;;;;;;0.60;0.60;;;;;;;;;;5001355;28;20208;-65
2024/01/02 10:50:38;;;;;;;0.50;0.50;;;;;;;;;;5001261;28;20204;-65
2024/01/02 10:53:11;;;;;;;0.73;0.60;;;;;;;;;;4998641;28;20486;-65
2024/01/02 10:55:44;;;;;;;0.30;0.30;;;;;;;;;;4995647;28;20226;-65
2024/01/02 10:58:17;;;;;;;0.53;0.53;;;;;;;;;;4995282;28;20208;-65
2024/01/02 11:00:48;;;;;;;0.57;0.57;;;;;;;;;;5006448;28;20231;-64
2024/01/02 11:03:17;;;;;;;0.43;0.43;;;;;;;;;;5006043;28;20212;-65
2024/01/02 11:05:46;;;;;;;0.63;0.63;;;;;;;;;;5002719;28;20218;-66
2024/01/02 11:08:15;;;;;;;0.50;0.50;;;;;;;;;;5003489;28;20216;-66
2024/01/02 11:10:48;;;;;;;0.60;0.60;;;;;;;;;;5001200;28;20219;-66
2024/01/02 11:13:17;;;;;;;0.80;0.80;;;;;;;;;;5001873;28;20204;-65
2024/01/02 11:15:45;;;;;;;0.60;0.60;;;;;;;;;;5010585;28;20204;-67
2024/01/02 11:18:12;;;;;;;0.40;0.40;;;;;;;;;;5018461;28;20212;-65
2024/01/02 11:20:43;;;;;;;0.47;0.47;;;;;;;;;;5012915;28;20208;-66
2024/01/02 11:23:14;;;;;;;0.30;0.30;;;;;;;;;;5020271;28;20259;-65
2024/01/02 11:25:44;;;;;;;0.20;0.20;;;;;;;;;;5010515;28;20232;-66
2024/01/02 11:28:12;;;;;;;0.13;0.13;;;;;;;;;;5003757;28;20228;-67
2024/01/02 11:30:41;;;;;;;0.40;0.40;;;;;;;;;;5017695;28;20238;-68
2024/01/02 11:33:14;;;;;;;2.50;0.30;;;;;;;;;;5021566;28;20208;-66
2024/01/02 11:35:46;;;;;;;0.50;0.50;;;;;;;;;;5026354;28;20262;-66
2024/01/02 11:38:16;;;;;;;0.23;0.23;;;;;;;;;;5017245;28;20242;-65
2024/01/02 11:40:53;;;;;;;0.60;0.33;;;;;;;;;;5007396;28;20200;-66
2024/01/02 11:43:24;;;;;;;0.47;0.30;;;;;;;;;;5009473;28;20212;-65
2024/01/02 11:45:57;;;;;;;0.23;0.23;;;;;;;;;;5005468;28;20212;-66
2024/01/02 11:48:31;;;;;;;0.30;0.30;;;;;;;;;;5014578;28;20235;-67
2024/01/02 11:50:59;;;;;;;0.20;0.20;;;;;;;;;;5022024;28;20331;-67
2024/01/02 11:53:37;;;;;;;0.30;0.30;;;;;;;;;;5024206;28;20208;-67
2024/01/02 11:56:05;;;;;;;0.30;0.30;;;;;;;;;;5021223;28;20203;-66
2024/01/02 11:58:35;;;;;;;1.23;0.40;;;;;;;;;;5018386;28;20212;-66
2024/01/02 12:01:07;;;;;;;0.30;0.17;;;;;;;;;;5010644;28;20211;-66
2024/01/02 12:03:41;;;;;;;0.30;0.30;;;;;;;;;;5006058;28;20363;-66
2024/01/02 12:06:14;;;;;;;0.20;0.20;;;;;;;;;;5006664;28;20204;-65
2024/01/02 12:08:46;;;;;;;0.37;0.37;;;;;;;;;;5009650;28;20212;-65
2024/01/02 12:11:15;;;;;;;0.83;0.30;;;;;;;;;;5014988;28;20204;-66
2024/01/02 12:13:52;;;;;;;0.20;0.20;;;;;;;;;;5020372;28;20208;-66
2024/01/02 12:16:20;;;;;;;0.27;0.27;;;;;;;;;;5007113;28;20367;-66
2024/01/02 12:18:49;;;;;;;1.00;0.37;;;;;;;;;;5006215;28;20208;-66
2024/01/02 12:21:19;;;;;;;0.30;0.30;;;;;;;;;;5009251;28;20213;-66
2024/01/02 12:23:49;;;;;;;1.70;0.30;;;;;;;;;;5008986;28;20216;-65
2024/01/02 12:26:17;;;;;;;0.80;0.80;;;;;;;;;;5009877;28;20199;-66
2024/01/02 12:28:45;;;;;;;0.60;0.40;;;;;;;;;;5033121;28;20197;-65
2024/01/02 12:31:13;;;;;;;0.33;0.30;;;;;;;;;;5029906;28;20304;-66
2024/01/02 12:33:46;;;;;;;0.50;0.50;;;;;;;;;;5030203;28;20195;-66
2024/01/02 12:36:13;;;;;;;1.57;1.30;;;;;;;;;;5027868;28;20216;-66
2024/01/02 12:38:47;;;;;;;0.50;0.50;;;;;;;;;;5020734;28;20226;-66
2024/01/02 12:41:18;;;;;;;1.40;1.30;;;;;;;;;;5025331;28;20224;-66
2024/01/02 12:43:48;;;;;;;2.10;1.90;;;;;;;;;;5022677;28;20211;-66
2024/01/02 12:46:15;;;;;;;1.00;1.00;;;;;;;;;;5031421;28;20206;-66
2024/01/02 12:48:48;;;;;;;1.17;0.50;;;;;;;;;;5028833;28;20204;-66
2024/01/02 12:51:15;;;;;;;0.17;0.17;;;;;;;;;;5023362;28;20206;-65
2024/01/02 12:53:44;;;;;;;0.43;0.20;;;;;;;;;;5022117;28;20205;-66
2024/01/02 12:56:17;;;;;;;0.83;0.40;;;;;;;;;;5018181;28;20208;-68
2024/01/02 12:58:46;;;;;;;0.37;0.37;;;;;;;;;;5020489;28;20243;-66
2024/01/02 13:01:14;;;;;;;0.33;0.27;;;;;;;;;;5027282;28;20200;-65
2024/01/02 13:03:43;;;;;;;0.30;0.30;;;;;;;;;;5020535;28;21710;-66
2024/01/02 13:06:11;;;;;;;0.43;0.43;;;;;;;;;;5019907;28;20211;-65
2024/01/02 13:08:38;;;;;;;0.90;0.40;;;;;;;;;;5017126;28;20200;-65
2024/01/02 13:11:05;;;;;;;0.83;0.60;;;;;;;;;;5021896;28;20204;-66
2024/01/02 13:13:32;;;;;;;0.20;0.20;;;;;;;;;;5022973;28;20235;-65
2024/01/02 13:16:01;;;;;;;0.40;0.40;;;;;;;;;;5019322;28;20210;-66
2024/01/02 13:18:29;;;;;;;1.73;0.40;;;;;;;;;;5021202;28;20289;-65
2024/01/02 13:20:56;;;;;;;0.43;0.43;;;;;;;;;;5015138;28;20281;-65
2024/01/02 13:23:23;;;;;;;0.40;0.40;;;;;;;;;;5021521;28;20197;-65
2024/01/02 13:25:52;;;;;;;0.70;0.70;;;;;;;;;;5019453;28;20208;-66
2024/01/02 13:28:20;;;;;;;0.60;0.60;;;;;;;;;;5019717;28;20306;-66
2024/01/02 13:30:47;;;;;;;0.97;0.97;;;;;;;;;;5020176;28;20205;-66
2024/01/02 13:33:16;;;;;;;0.70;0.43;;;;;;;;;;5021673;28;20204;-66
2024/01/02 13:35:47;;;;;;;0.43;0.37;;;;;;;;;;5018773;28;20204;-66
2024/01/02 13:38:15;;;;;;;1.87;0.80;;;;;;;;;;5021983;28;20306;-65
2024/01/02 13:40:43;;;;;;;0.60;0.60;;;;;;;;;;5019453;28;20239;-65
2024/01/02 13:43:13;;;;;;;0.40;0.40;;;;;;;;;;5023140;28;20216;-65
2024/01/02 13:45:40;;;;;;;0.57;0.37;;;;;;;;;;5019783;28;20211;-66
2024/01/02 13:48:12;;;;;;;3.43;0.60;;;;;;;;;;5020141;28;20197;-65
2024/01/02 13:50:41;;;;;;;2.07;0.40;;;;;;;;;;5020384;28;20215;-65
2024/01/02 13:53:10;;;;;;;0.87;0.40;;;;;;;;;;5018530;28;20208;-65
2024/01/02 13:55:37;;;;;;;0.37;0.37;;;;;;;;;;5022572;28;20288;-66
2024/01/02 13:58:08;;;;;;;0.53;0.50;;;;;;;;;;5019709;28;20219;-66
2024/01/02 14:00:36;;;;;;;0.40;0.30;;;;;;;;;;5018128;28;20216;-65
2024/01/02 14:03:04;;;;;;;0.53;0.40;;;;;;;;;;5019507;28;20545;-65
2024/01/02 14:05:31;;;;;;;0.27;0.27;;;;;;;;;;5012520;28;20219;-65
2024/01/02 14:08:00;;;;;;;0.27;0.20;;;;;;;;;;5003563;28;20796;-65
2024/01/02 14:10:27;;;;;;;0.30;0.30;;;;;;;;;;5012344;28;20227;-65
2024/01/02 14:12:54;;;;;;;0.60;0.30;;;;;;;;;;5024998;28;20207;-65
2024/01/02 14:15:23;;;;;;;0.30;0.30;;;;;;;;;;5020194;28;20220;-65
2024/01/02 14:17:53;;;;;;;2.00;0.50;;;;;;;;;;5018051;28;20224;-66
2024/01/02 14:20:23;;;;;;;0.43;0.30;;;;;;;;;;5019025;28;20204;-66
2024/01/02 14:22:57;;;;;;;0.67;0.30;;;;;;;;;;5020955;28;20242;-65
2024/01/02 14:25:30;;;;;;;0.20;0.20;;;;;;;;;;5018737;28;20277;-66
2024/01/02 14:28:04;;;;;;;0.40;0.40;;;;;;;;;;5020162;28;20212;-65
2024/01/02 14:30:32;;;;;;;0.47;0.47;;;;;;;;;;5018409;28;20212;-66
2024/01/02 14:33:16;;;;;;;1.57;0.90;;;;;;;;;;5020757;28;20204;-65
2024/01/02 14:35:52;;;;;;;0.30;0.30;;;;;;;;;;5019591;28;20211;-65
2024/01/02 14:38:23;;;;;;;0.60;0.60;;;;;;;;;;5009596;28;20263;-65
2024/01/02 14:40:59;;;;;;;0.50;0.50;;;;;;;;;;5002646;28;20216;-65
2024/01/02 14:43:34;;;;;;;0.50;0.50;;;;;;;;;;5007316;28;20215;-65
2024/01/02 14:46:09;;;;;;;1.50;1.40;;;;;;;;;;5013050;28;20203;-66
2024/01/02 14:48:41;;;;;;;0.63;0.50;;;;;;;;;;5024727;28;20203;-66
2024/01/02 14:51:13;;;;;;;1.90;0.70;;;;;;;;;;5020891;28;20204;-65